sensor_id;sensor_type;location;lat;lon;timestamp;pressure;altitude;pressure_sealevel;temperature;humidity
21760;BME280;11041;50.854;20.580;2023-03-14T00:01:29;97391.22;;;6.07;74.17
21760;BME280;11041;50.854;20.580;2023-03-14T00:03:55;97389.13;;;6.04;74.30
21760;BME280;11041;50.854;20.580;2023-03-14T00:06:22;97381.41;;;5.97;74.45
21760;BME280;11041;50.854;20.580;2023-03-14T00:08:50;97393.91;;;5.98;74.23
21760;BME280;11041;50.854;20.580;2023-03-14T00:11:20;97394.25;;;5.97;74.10
21760;BME280;11041;50.854;20.580;2023-03-14T00:13:51;97369.84;;;5.92;74.10
21760;BME280;11041;50.854;20.580;2023-03-14T00:16:19;97360.69;;;5.88;74.85
21760;BME280;11041;50.854;20.580;2023-03-14T00:18:46;97369.84;;;5.92;74.09
21760;BME280;11041;50.854;20.580;2023-03-14T00:21:13;97352.03;;;5.86;74.38
21760;BME280;11041;50.854;20.580;2023-03-14T00:23:41;97348.81;;;5.84;73.96
21760;BME280;11041;50.854;20.580;2023-03-14T00:26:14;97360.19;;;5.86;74.22
21760;BME280;11041;50.854;20.580;2023-03-14T00:28:42;97366.44;;;5.86;74.21
21760;BME280;11041;50.854;20.580;2023-03-14T00:31:13;97364.06;;;5.85;74.46
21760;BME280;11041;50.854;20.580;2023-03-14T00:33:42;97361.31;;;5.85;74.46
21760;BME280;11041;50.854;20.580;2023-03-14T00:36:15;97340.13;;;5.82;74.46
21760;BME280;11041;50.854;20.580;2023-03-14T00:38:44;97336.31;;;5.83;74.14
21760;BME280;11041;50.854;20.580;2023-03-14T00:41:18;97338.69;;;5.84;73.92
21760;BME280;11041;50.854;20.580;2023-03-14T00:43:45;97326.19;;;5.83;74.33
21760;BME280;11041;50.854;20.580;2023-03-14T00:46:13;97319.78;;;5.79;74.25
21760;BME280;11041;50.854;20.580;2023-03-14T00:48:40;97313.22;;;5.80;74.00
21760;BME280;11041;50.854;20.580;2023-03-14T00:51:08;97325.41;;;5.83;73.41
21760;BME280;11041;50.854;20.580;2023-03-14T00:53:38;97321.06;;;5.82;73.80
21760;BME280;11041;50.854;20.580;2023-03-14T00:56:10;97314.47;;;5.74;74.20
21760;BME280;11041;50.854;20.580;2023-03-14T00:58:37;97307.44;;;5.73;74.29
21760;BME280;11041;50.854;20.580;2023-03-14T01:01:15;97300.19;;;5.77;74.08
21760;BME280;11041;50.854;20.580;2023-03-14T01:03:42;97289.94;;;5.74;74.01
21760;BME280;11041;50.854;20.580;2023-03-14T01:06:11;97291.22;;;5.76;73.90
21760;BME280;11041;50.854;20.580;2023-03-14T01:08:38;97279.69;;;5.71;73.84
21760;BME280;11041;50.854;20.580;2023-03-14T01:11:14;97272.31;;;5.71;73.58
21760;BME280;11041;50.854;20.580;2023-03-14T01:13:42;97280.81;;;5.79;73.56
21760;BME280;11041;50.854;20.580;2023-03-14T01:16:11;97273.44;;;5.79;74.15
21760;BME280;11041;50.854;20.580;2023-03-14T01:18:41;97259.00;;;5.79;74.16
21760;BME280;11041;50.854;20.580;2023-03-14T01:21:21;97254.03;;;5.81;73.43
21760;BME280;11041;50.854;20.580;2023-03-14T01:23:49;97228.06;;;5.74;73.74
21760;BME280;11041;50.854;20.580;2023-03-14T01:26:20;97229.34;;;5.77;73.18
21760;BME280;11041;50.854;20.580;2023-03-14T01:28:49;97226.78;;;5.81;73.83
21760;BME280;11041;50.854;20.580;2023-03-14T01:31:16;97218.78;;;5.75;73.56
21760;BME280;11041;50.854;20.580;2023-03-14T01:33:44;97210.59;;;5.75;73.59
21760;BME280;11041;50.854;20.580;2023-03-14T01:36:11;97209.81;;;5.75;73.35
21760;BME280;11041;50.854;20.580;2023-03-14T01:38:39;97217.00;;;5.80;73.30
21760;BME280;11041;50.854;20.580;2023-03-14T01:41:09;97218.13;;;5.79;73.02
21760;BME280;11041;50.854;20.580;2023-03-14T01:43:38;97212.19;;;5.76;73.01
21760;BME280;11041;50.854;20.580;2023-03-14T01:49:04;97210.75;;;5.79;72.98
21760;BME280;11041;50.854;20.580;2023-03-14T01:54:45;97200.00;;;5.74;72.52
21760;BME280;11041;50.854;20.580;2023-03-14T01:59:49;97194.91;;;5.72;72.71
21760;BME280;11041;50.854;20.580;2023-03-14T02:02:19;97188.00;;;5.75;72.88
21760;BME280;11041;50.854;20.580;2023-03-14T02:04:46;97177.91;;;5.75;72.41
21760;BME280;11041;50.854;20.580;2023-03-14T02:07:38;97176.28;;;5.74;72.71
21760;BME280;11041;50.854;20.580;2023-03-14T02:10:09;97168.28;;;5.69;72.90
21760;BME280;11041;50.854;20.580;2023-03-14T02:12:37;97170.03;;;5.74;72.98
21760;BME280;11041;50.854;20.580;2023-03-14T02:15:06;97159.94;;;5.74;72.98
21760;BME280;11041;50.854;20.580;2023-03-14T02:17:35;97163.31;;;5.71;72.72
21760;BME280;11041;50.854;20.580;2023-03-14T02:23:15;97169.41;;;5.68;72.63
21760;BME280;11041;50.854;20.580;2023-03-14T02:25:53;97144.22;;;5.63;72.89
21760;BME280;11041;50.854;20.580;2023-03-14T02:28:23;97138.47;;;5.64;72.97
21760;BME280;11041;50.854;20.580;2023-03-14T02:30:50;97119.06;;;5.57;72.74
21760;BME280;11041;50.854;20.580;2023-03-14T02:33:20;97118.41;;;5.60;72.88
21760;BME280;11041;50.854;20.580;2023-03-14T02:35:55;97125.81;;;5.60;72.61
21760;BME280;11041;50.854;20.580;2023-03-14T02:41:15;97140.09;;;5.57;72.70
21760;BME280;11041;50.854;20.580;2023-03-14T02:43:42;97125.19;;;5.54;73.22
21760;BME280;11041;50.854;20.580;2023-03-14T02:46:19;97123.25;;;5.54;72.94
21760;BME280;11041;50.854;20.580;2023-03-14T02:48:58;97120.53;;;5.54;73.30
21760;BME280;11041;50.854;20.580;2023-03-14T02:51:28;97108.50;;;5.47;73.38
21760;BME280;11041;50.854;20.580;2023-03-14T02:53:55;97123.09;;;5.51;73.29
21760;BME280;11041;50.854;20.580;2023-03-14T02:56:22;97133.53;;;5.49;73.67
21760;BME280;11041;50.854;20.580;2023-03-14T02:58:48;97138.00;;;5.45;72.87
21760;BME280;11041;50.854;20.580;2023-03-14T03:01:15;97149.88;;;5.49;73.05
21760;BME280;11041;50.854;20.580;2023-03-14T03:03:41;97141.84;;;5.44;73.60
21760;BME280;11041;50.854;20.580;2023-03-14T03:06:08;97148.91;;;5.45;72.91
21760;BME280;11041;50.854;20.580;2023-03-14T03:08:34;97129.38;;;5.34;73.29
21760;BME280;11041;50.854;20.580;2023-03-14T03:11:02;97138.81;;;5.37;73.73
21760;BME280;11041;50.854;20.580;2023-03-14T03:13:29;97131.91;;;5.30;73.30
21760;BME280;11041;50.854;20.580;2023-03-14T03:15:56;97117.81;;;5.28;73.69
21760;BME280;11041;50.854;20.580;2023-03-14T03:18:22;97129.19;;;5.30;73.72
21760;BME280;11041;50.854;20.580;2023-03-14T03:20:49;97122.31;;;5.24;73.67
21760;BME280;11041;50.854;20.580;2023-03-14T03:23:15;97131.75;;;5.27;73.84
21760;BME280;11041;50.854;20.580;2023-03-14T03:25:48;97119.72;;;5.19;74.40
21760;BME280;11041;50.854;20.580;2023-03-14T03:28:15;97111.56;;;5.19;73.95
21760;BME280;11041;50.854;20.580;2023-03-14T03:30:42;97119.91;;;5.23;74.46
21760;BME280;11041;50.854;20.580;2023-03-14T03:33:10;97111.25;;;5.21;74.50
21760;BME280;11041;50.854;20.580;2023-03-14T03:35:49;97136.06;;;5.19;74.51
21760;BME280;11041;50.854;20.580;2023-03-14T03:38:16;97130.63;;;5.19;74.59
21760;BME280;11041;50.854;20.580;2023-03-14T03:40:43;97132.88;;;5.17;74.74
21760;BME280;11041;50.854;20.580;2023-03-14T03:43:10;97124.22;;;5.06;75.20
21760;BME280;11041;50.854;20.580;2023-03-14T03:45:36;97128.84;;;4.97;74.71
21760;BME280;11041;50.854;20.580;2023-03-14T03:48:03;97116.34;;;4.87;75.33
21760;BME280;11041;50.854;20.580;2023-03-14T03:50:30;97117.63;;;4.81;75.44
21760;BME280;11041;50.854;20.580;2023-03-14T03:52:57;97113.63;;;4.79;76.35
21760;BME280;11041;50.854;20.580;2023-03-14T03:55:23;97110.72;;;4.75;76.21
21760;BME280;11041;50.854;20.580;2023-03-14T03:57:51;97096.78;;;4.68;76.36
21760;BME280;11041;50.854;20.580;2023-03-14T04:00:18;97095.00;;;4.63;76.07
21760;BME280;11041;50.854;20.580;2023-03-14T04:02:45;97098.06;;;4.62;76.66
21760;BME280;11041;50.854;20.580;2023-03-14T04:05:11;97085.22;;;4.54;76.46
21760;BME280;11041;50.854;20.580;2023-03-14T04:07:38;97099.47;;;4.59;76.82
21760;BME280;11041;50.854;20.580;2023-03-14T04:10:04;97100.91;;;4.57;76.63
21760;BME280;11041;50.854;20.580;2023-03-14T04:12:31;97094.03;;;4.51;76.88
21760;BME280;11041;50.854;20.580;2023-03-14T04:14:57;97088.09;;;4.48;77.53
21760;BME280;11041;50.854;20.580;2023-03-14T04:17:24;97084.25;;;4.49;77.27
21760;BME280;11041;50.854;20.580;2023-03-14T04:19:50;97081.06;;;4.47;77.13
21760;BME280;11041;50.854;20.580;2023-03-14T04:22:20;97077.69;;;4.42;77.37
21760;BME280;11041;50.854;20.580;2023-03-14T04:24:46;97076.09;;;4.41;77.33
21760;BME280;11041;50.854;20.580;2023-03-14T04:27:13;97074.00;;;4.38;77.29
21760;BME280;11041;50.854;20.580;2023-03-14T04:29:42;97087.59;;;4.38;77.44
21760;BME280;11041;50.854;20.580;2023-03-14T04:32:09;97115.41;;;4.35;77.17
21760;BME280;11041;50.854;20.580;2023-03-14T04:34:36;97103.34;;;4.18;77.83
21760;BME280;11041;50.854;20.580;2023-03-14T04:37:03;97111.38;;;4.23;77.68
21760;BME280;11041;50.854;20.580;2023-03-14T04:39:30;97101.59;;;4.14;77.52
21760;BME280;11041;50.854;20.580;2023-03-14T04:41:56;97091.31;;;4.11;77.57
21760;BME280;11041;50.854;20.580;2023-03-14T04:44:23;97085.88;;;4.11;77.36
21760;BME280;11041;50.854;20.580;2023-03-14T04:46:49;97089.69;;;4.01;77.49
21760;BME280;11041;50.854;20.580;2023-03-14T04:49:16;97082.97;;;3.98;77.54
21760;BME280;11041;50.854;20.580;2023-03-14T04:51:42;97083.09;;;3.93;77.94
21760;BME280;11041;50.854;20.580;2023-03-14T04:54:09;97065.81;;;3.89;77.89
21760;BME280;11041;50.854;20.580;2023-03-14T04:56:36;97080.53;;;3.88;78.22
21760;BME280;11041;50.854;20.580;2023-03-14T04:59:04;97078.31;;;3.90;78.63
21760;BME280;11041;50.854;20.580;2023-03-14T05:01:31;97070.50;;;3.97;79.08
21760;BME280;11041;50.854;20.580;2023-03-14T05:03:57;97066.03;;;4.01;78.54
21760;BME280;11041;50.854;20.580;2023-03-14T05:06:24;97056.63;;;4.08;78.63
21760;BME280;11041;50.854;20.580;2023-03-14T05:08:51;97047.03;;;4.10;78.82
21760;BME280;11041;50.854;20.580;2023-03-14T05:11:17;97028.50;;;4.21;78.66
21760;BME280;11041;50.854;20.580;2023-03-14T05:13:44;97031.09;;;4.26;78.02
21760;BME280;11041;50.854;20.580;2023-03-14T05:16:11;97036.88;;;4.33;77.95
21760;BME280;11041;50.854;20.580;2023-03-14T05:18:38;97029.50;;;4.42;77.43
21760;BME280;11041;50.854;20.580;2023-03-14T05:21:05;97018.34;;;4.53;77.86
21760;BME280;11041;50.854;20.580;2023-03-14T05:23:32;97016.44;;;4.62;76.85
21760;BME280;11041;50.854;20.580;2023-03-14T05:25:58;97022.22;;;4.69;76.45
21760;BME280;11041;50.854;20.580;2023-03-14T05:28:25;97020.75;;;4.80;75.49
21760;BME280;11041;50.854;20.580;2023-03-14T05:30:51;97024.59;;;4.88;76.14
21760;BME280;11041;50.854;20.580;2023-03-14T05:33:18;97036.16;;;4.94;75.49
21760;BME280;11041;50.854;20.580;2023-03-14T05:35:44;97026.06;;;4.94;75.16
21760;BME280;11041;50.854;20.580;2023-03-14T05:38:11;97025.25;;;5.02;73.90
21760;BME280;11041;50.854;20.580;2023-03-14T05:40:37;97031.16;;;5.04;74.25
21760;BME280;11041;50.854;20.580;2023-03-14T05:43:04;97012.91;;;5.05;73.87
21760;BME280;11041;50.854;20.580;2023-03-14T05:45:34;97005.88;;;5.12;73.45
21760;BME280;11041;50.854;20.580;2023-03-14T05:48:02;97000.88;;;5.15;74.02
21760;BME280;11041;50.854;20.580;2023-03-14T05:50:28;96995.13;;;5.16;73.14
21760;BME280;11041;50.854;20.580;2023-03-14T05:52:55;97005.84;;;5.21;73.58
21760;BME280;11041;50.854;20.580;2023-03-14T05:55:22;96980.84;;;5.19;73.50
21760;BME280;11041;50.854;20.580;2023-03-14T05:57:48;96982.94;;;5.22;73.25
21760;BME280;11041;50.854;20.580;2023-03-14T06:00:16;96987.09;;;5.28;72.89
21760;BME280;11041;50.854;20.580;2023-03-14T06:02:42;96989.16;;;5.31;72.72
21760;BME280;11041;50.854;20.580;2023-03-14T06:05:09;96983.09;;;5.34;72.67
21760;BME280;11041;50.854;20.580;2023-03-14T06:07:36;96987.88;;;5.38;72.28
21760;BME280;11041;50.854;20.580;2023-03-14T06:10:04;96987.53;;;5.48;72.52
21760;BME280;11041;50.854;20.580;2023-03-14T06:12:30;96977.25;;;5.53;71.85
21760;BME280;11041;50.854;20.580;2023-03-14T06:14:57;96975.16;;;5.59;72.09
21760;BME280;11041;50.854;20.580;2023-03-14T06:17:23;96974.78;;;5.69;71.48
21760;BME280;11041;50.854;20.580;2023-03-14T06:19:50;96985.16;;;5.85;70.91
21760;BME280;11041;50.854;20.580;2023-03-14T06:22:16;96970.56;;;5.89;71.08
21760;BME280;11041;50.854;20.580;2023-03-14T06:24:43;96970.69;;;6.02;70.52
21760;BME280;11041;50.854;20.580;2023-03-14T06:27:10;96965.63;;;6.12;70.10
21760;BME280;11041;50.854;20.580;2023-03-14T06:29:37;96960.47;;;6.19;70.10
21760;BME280;11041;50.854;20.580;2023-03-14T06:32:03;96977.38;;;6.34;69.86
21760;BME280;11041;50.854;20.580;2023-03-14T06:34:31;96955.81;;;6.41;69.91
21760;BME280;11041;50.854;20.580;2023-03-14T06:36:58;96960.88;;;6.51;69.05
21760;BME280;11041;50.854;20.580;2023-03-14T06:39:24;96977.47;;;6.67;68.38
21760;BME280;11041;50.854;20.580;2023-03-14T06:41:52;96971.13;;;6.75;68.63
21760;BME280;11041;50.854;20.580;2023-03-14T06:44:18;96953.91;;;6.83;68.46
21760;BME280;11041;50.854;20.580;2023-03-14T06:46:45;96963.25;;;6.95;68.18
21760;BME280;11041;50.854;20.580;2023-03-14T06:49:11;96956.78;;;6.99;67.95
21760;BME280;11041;50.854;20.580;2023-03-14T06:51:38;96967.75;;;7.12;67.38
21760;BME280;11041;50.854;20.580;2023-03-14T06:54:05;96968.47;;;7.21;67.10
21760;BME280;11041;50.854;20.580;2023-03-14T06:56:31;96951.88;;;7.26;66.59
21760;BME280;11041;50.854;20.580;2023-03-14T06:58:58;96949.38;;;7.33;66.46
21760;BME280;11041;50.854;20.580;2023-03-14T07:01:28;96954.53;;;7.47;66.69
21760;BME280;11041;50.854;20.580;2023-03-14T07:03:56;96954.44;;;7.56;66.38
21760;BME280;11041;50.854;20.580;2023-03-14T07:06:23;96962.22;;;7.66;65.92
21760;BME280;11041;50.854;20.580;2023-03-14T07:08:51;96948.78;;;7.73;65.52
21760;BME280;11041;50.854;20.580;2023-03-14T07:11:18;96957.31;;;7.84;65.26
21760;BME280;11041;50.854;20.580;2023-03-14T07:13:44;96944.22;;;7.89;65.34
21760;BME280;11041;50.854;20.580;2023-03-14T07:16:11;96954.69;;;8.00;64.27
21760;BME280;11041;50.854;20.580;2023-03-14T07:18:38;96938.41;;;8.03;64.63
21760;BME280;11041;50.854;20.580;2023-03-14T07:21:06;96941.47;;;8.14;64.59
21760;BME280;11041;50.854;20.580;2023-03-14T07:23:33;96933.81;;;8.20;65.02
21760;BME280;11041;50.854;20.580;2023-03-14T07:26:00;96931.22;;;8.23;64.88
21760;BME280;11041;50.854;20.580;2023-03-14T07:28:27;96944.88;;;8.36;64.34
21760;BME280;11041;50.854;20.580;2023-03-14T07:30:54;96934.97;;;8.43;62.64
21760;BME280;11041;50.854;20.580;2023-03-14T07:33:21;96937.34;;;8.57;62.96
21760;BME280;11041;50.854;20.580;2023-03-14T07:35:49;96934.59;;;8.57;62.78
21760;BME280;11041;50.854;20.580;2023-03-14T07:38:16;96943.34;;;8.63;62.88
21760;BME280;11041;50.854;20.580;2023-03-14T07:40:44;96932.97;;;8.68;62.18
21760;BME280;11041;50.854;20.580;2023-03-14T07:43:11;96942.28;;;8.80;62.22
21760;BME280;11041;50.854;20.580;2023-03-14T07:45:38;96937.59;;;8.80;62.58
21760;BME280;11041;50.854;20.580;2023-03-14T07:48:04;96934.72;;;8.89;62.41
21760;BME280;11041;50.854;20.580;2023-03-14T07:50:31;96925.72;;;8.88;62.44
21760;BME280;11041;50.854;20.580;2023-03-14T07:52:57;96936.16;;;8.99;62.57
21760;BME280;11041;50.854;20.580;2023-03-14T07:55:24;96934.06;;;9.08;61.67
21760;BME280;11041;50.854;20.580;2023-03-14T07:57:51;96931.06;;;9.13;62.49
21760;BME280;11041;50.854;20.580;2023-03-14T08:00:19;96939.06;;;9.34;60.97
21760;BME280;11041;50.854;20.580;2023-03-14T08:02:45;96934.75;;;9.49;60.31
21760;BME280;11041;50.854;20.580;2023-03-14T08:05:12;96933.34;;;9.55;60.13
21760;BME280;11041;50.854;20.580;2023-03-14T08:07:38;96940.06;;;9.57;59.99
21760;BME280;11041;50.854;20.580;2023-03-14T08:10:06;96945.13;;;9.55;60.24
21760;BME280;11041;50.854;20.580;2023-03-14T08:12:33;96940.06;;;9.57;59.46
21760;BME280;11041;50.854;20.580;2023-03-14T08:14:59;96935.56;;;9.65;59.48
21760;BME280;11041;50.854;20.580;2023-03-14T08:17:26;96933.88;;;9.60;60.65
21760;BME280;11041;50.854;20.580;2023-03-14T08:19:54;96936.97;;;9.59;60.86
21760;BME280;11041;50.854;20.580;2023-03-14T08:22:20;96924.41;;;9.58;60.89
21760;BME280;11041;50.854;20.580;2023-03-14T08:24:47;96931.13;;;9.60;60.76
21760;BME280;11041;50.854;20.580;2023-03-14T08:27:13;96940.59;;;9.63;61.12
21760;BME280;11041;50.854;20.580;2023-03-14T08:29:41;96943.41;;;9.67;61.24
21760;BME280;11041;50.854;20.580;2023-03-14T08:32:08;96931.75;;;9.70;61.50
21760;BME280;11041;50.854;20.580;2023-03-14T08:34:34;96931.06;;;9.73;61.29
21760;BME280;11041;50.854;20.580;2023-03-14T08:37:01;96929.19;;;9.77;61.79
21760;BME280;11041;50.854;20.580;2023-03-14T08:39:28;96933.06;;;9.76;61.82
21760;BME280;11041;50.854;20.580;2023-03-14T08:41:54;96933.69;;;9.85;61.05
21760;BME280;11041;50.854;20.580;2023-03-14T08:44:20;96941.47;;;9.99;61.11
21760;BME280;11041;50.854;20.580;2023-03-14T08:46:47;96945.97;;;10.07;61.51
21760;BME280;11041;50.854;20.580;2023-03-14T08:49:14;96942.50;;;10.26;61.70
21760;BME280;11041;50.854;20.580;2023-03-14T08:51:41;96943.03;;;10.32;61.64
21760;BME280;11041;50.854;20.580;2023-03-14T08:54:10;96939.47;;;10.47;60.51
21760;BME280;11041;50.854;20.580;2023-03-14T08:56:37;96937.22;;;10.53;61.23
21760;BME280;11041;50.854;20.580;2023-03-14T08:59:05;96927.72;;;10.66;60.43
21760;BME280;11041;50.854;20.580;2023-03-14T09:01:32;96932.94;;;10.71;60.59
21760;BME280;11041;50.854;20.580;2023-03-14T09:03:59;96924.59;;;10.87;60.00
21760;BME280;11041;50.854;20.580;2023-03-14T09:06:25;96931.75;;;11.11;59.16
21760;BME280;11041;50.854;20.580;2023-03-14T09:08:52;96930.66;;;11.16;59.60
21760;BME280;11041;50.854;20.580;2023-03-14T09:11:18;96930.75;;;11.19;60.30
21760;BME280;11041;50.854;20.580;2023-03-14T09:13:45;96907.16;;;11.18;60.94
21760;BME280;11041;50.854;20.580;2023-03-14T09:16:11;96902.22;;;11.27;59.58
21760;BME280;11041;50.854;20.580;2023-03-14T09:18:38;96907.94;;;11.38;59.98
21760;BME280;11041;50.854;20.580;2023-03-14T09:21:05;96903.16;;;11.58;58.93
21760;BME280;11041;50.854;20.580;2023-03-14T09:23:32;96901.00;;;11.71;57.55
21760;BME280;11041;50.854;20.580;2023-03-14T09:26:00;96913.50;;;11.88;57.24
21760;BME280;11041;50.854;20.580;2023-03-14T09:28:27;96914.16;;;12.04;57.28
21760;BME280;11041;50.854;20.580;2023-03-14T09:30:54;96910.41;;;12.16;56.87
21760;BME280;11041;50.854;20.580;2023-03-14T09:33:21;96905.09;;;12.30;54.73
21760;BME280;11041;50.854;20.580;2023-03-14T09:35:48;96905.75;;;12.50;54.76
21760;BME280;11041;50.854;20.580;2023-03-14T09:38:14;96899.28;;;12.66;52.99
21760;BME280;11041;50.854;20.580;2023-03-14T09:40:42;96911.56;;;12.72;54.16
21760;BME280;11041;50.854;20.580;2023-03-14T09:43:15;96903.47;;;12.86;53.34
21760;BME280;11041;50.854;20.580;2023-03-14T09:45:46;96902.34;;;12.91;53.01
21760;BME280;11041;50.854;20.580;2023-03-14T09:48:26;96911.50;;;12.98;53.56
21760;BME280;11041;50.854;20.580;2023-03-14T09:50:57;96912.41;;;13.06;52.31
21760;BME280;11041;50.854;20.580;2023-03-14T09:53:33;96908.38;;;13.00;53.13
21760;BME280;11041;50.854;20.580;2023-03-14T09:56:02;96913.09;;;12.99;53.20
21760;BME280;11041;50.854;20.580;2023-03-14T09:58:30;96917.75;;;12.95;52.81
21760;BME280;11041;50.854;20.580;2023-03-14T10:00:58;96904.06;;;13.03;52.29
21760;BME280;11041;50.854;20.580;2023-03-14T10:03:32;96909.25;;;13.08;52.11
21760;BME280;11041;50.854;20.580;2023-03-14T10:06:00;96907.31;;;13.12;52.65
21760;BME280;11041;50.854;20.580;2023-03-14T10:08:27;96913.34;;;13.21;52.62
21760;BME280;11041;50.854;20.580;2023-03-14T10:10:54;96901.09;;;13.18;52.47
21760;BME280;11041;50.854;20.580;2023-03-14T10:13:24;96914.16;;;13.25;53.57
21760;BME280;11041;50.854;20.580;2023-03-14T10:15:55;96906.75;;;13.29;52.48
21760;BME280;11041;50.854;20.580;2023-03-14T10:18:25;96907.16;;;13.31;52.48
21760;BME280;11041;50.854;20.580;2023-03-14T10:21:30;96912.13;;;13.56;51.69
21760;BME280;11041;50.854;20.580;2023-03-14T10:24:33;96912.19;;;13.63;52.44
21760;BME280;11041;50.854;20.580;2023-03-14T10:27:06;96906.41;;;13.75;51.52
21760;BME280;11041;50.854;20.580;2023-03-14T10:30:06;96904.53;;;13.87;51.47
21760;BME280;11041;50.854;20.580;2023-03-14T10:32:38;96909.72;;;13.95;50.55
21760;BME280;11041;50.854;20.580;2023-03-14T10:35:20;96917.19;;;13.95;51.37
21760;BME280;11041;50.854;20.580;2023-03-14T10:37:58;96919.16;;;13.91;51.18
21760;BME280;11041;50.854;20.580;2023-03-14T10:40:41;96923.31;;;13.70;51.77
21760;BME280;11041;50.854;20.580;2023-03-14T10:43:19;96879.44;;;13.58;51.20
21760;BME280;11041;50.854;20.580;2023-03-14T10:45:58;96892.09;;;13.59;52.40
21760;BME280;11041;50.854;20.580;2023-03-14T10:48:34;96882.25;;;13.65;52.03
21760;BME280;11041;50.854;20.580;2023-03-14T10:54:22;96904.91;;;13.85;52.73
21760;BME280;11041;50.854;20.580;2023-03-14T10:57:05;96909.75;;;13.99;51.78
21760;BME280;11041;50.854;20.580;2023-03-14T10:59:41;96925.28;;;14.18;51.95
21760;BME280;11041;50.854;20.580;2023-03-14T11:02:38;96915.06;;;14.22;50.79
21760;BME280;11041;50.854;20.580;2023-03-14T11:05:21;96914.97;;;14.11;51.31
21760;BME280;11041;50.854;20.580;2023-03-14T11:08:02;96905.47;;;14.05;50.54
21760;BME280;11041;50.854;20.580;2023-03-14T11:10:37;96910.94;;;14.01;51.00
21760;BME280;11041;50.854;20.580;2023-03-14T11:13:33;96913.28;;;13.96;51.34
21760;BME280;11041;50.854;20.580;2023-03-14T11:19:22;96905.28;;;13.83;51.06
21760;BME280;11041;50.854;20.580;2023-03-14T11:25:26;96907.41;;;13.56;51.98
21760;BME280;11041;50.854;20.580;2023-03-14T11:28:17;96905.81;;;13.52;52.67
21760;BME280;11041;50.854;20.580;2023-03-14T11:30:53;96922.38;;;13.52;53.06
21760;BME280;11041;50.854;20.580;2023-03-14T11:33:33;96909.38;;;13.56;52.26
21760;BME280;11041;50.854;20.580;2023-03-14T11:36:11;96903.44;;;13.54;52.31
21760;BME280;11041;50.854;20.580;2023-03-14T11:38:50;96907.53;;;13.67;52.63
21760;BME280;11041;50.854;20.580;2023-03-14T11:41:42;96898.88;;;13.69;52.07
21760;BME280;11041;50.854;20.580;2023-03-14T11:44:26;96909.09;;;13.68;52.25
21760;BME280;11041;50.854;20.580;2023-03-14T11:47:15;96908.66;;;13.62;51.55
21760;BME280;11041;50.854;20.580;2023-03-14T11:49:56;96907.38;;;13.53;52.61
21760;BME280;11041;50.854;20.580;2023-03-14T11:55:24;96918.28;;;13.38;52.31
21760;BME280;11041;50.854;20.580;2023-03-14T11:58:09;96895.72;;;13.29;52.54
21760;BME280;11041;50.854;20.580;2023-03-14T12:00:40;96904.66;;;13.22;52.58
21760;BME280;11041;50.854;20.580;2023-03-14T12:03:42;96887.22;;;13.11;53.41
21760;BME280;11041;50.854;20.580;2023-03-14T12:06:20;96887.56;;;13.06;53.56
21760;BME280;11041;50.854;20.580;2023-03-14T12:08:56;96872.81;;;12.91;54.47
21760;BME280;11041;50.854;20.580;2023-03-14T12:12:02;96880.72;;;12.93;54.43
21760;BME280;11041;50.854;20.580;2023-03-14T12:14:36;96873.47;;;12.77;55.36
21760;BME280;11041;50.854;20.580;2023-03-14T12:19:40;96865.56;;;12.76;55.29
21760;BME280;11041;50.854;20.580;2023-03-14T12:22:28;96872.69;;;12.81;55.15
21760;BME280;11041;50.854;20.580;2023-03-14T12:25:22;96869.78;;;12.66;55.96
21760;BME280;11041;50.854;20.580;2023-03-14T12:30:41;96881.38;;;12.49;56.12
21760;BME280;11041;50.854;20.580;2023-03-14T12:33:20;96893.53;;;12.48;56.96
21760;BME280;11041;50.854;20.580;2023-03-14T12:35:50;96886.72;;;12.38;57.73
21760;BME280;11041;50.854;20.580;2023-03-14T12:41:36;96902.59;;;12.22;58.34
21760;BME280;11041;50.854;20.580;2023-03-14T12:49:53;96893.41;;;12.10;58.63
21760;BME280;11041;50.854;20.580;2023-03-14T12:52:55;96893.00;;;12.08;58.81
21760;BME280;11041;50.854;20.580;2023-03-14T13:01:29;96895.31;;;12.06;59.53
21760;BME280;11041;50.854;20.580;2023-03-14T13:03:58;96885.84;;;12.04;59.50
21760;BME280;11041;50.854;20.580;2023-03-14T13:06:54;96886.41;;;12.17;58.71
21760;BME280;11041;50.854;20.580;2023-03-14T13:12:02;96885.53;;;12.09;59.64
21760;BME280;11041;50.854;20.580;2023-03-14T13:14:31;96891.03;;;12.09;59.96
21760;BME280;11041;50.854;20.580;2023-03-14T13:17:02;96886.19;;;12.02;60.49
21760;BME280;11041;50.854;20.580;2023-03-14T13:19:31;96884.25;;;12.03;60.62
21760;BME280;11041;50.854;20.580;2023-03-14T13:22:18;96867.25;;;11.97;61.08
21760;BME280;11041;50.854;20.580;2023-03-14T13:24:46;96867.94;;;11.90;61.25
21760;BME280;11041;50.854;20.580;2023-03-14T13:27:19;96880.22;;;11.97;61.48
21760;BME280;11041;50.854;20.580;2023-03-14T13:29:51;96890.63;;;11.84;62.08
21760;BME280;11041;50.854;20.580;2023-03-14T13:32:26;96891.13;;;11.89;62.13
21760;BME280;11041;50.854;20.580;2023-03-14T13:34:57;96890.63;;;11.84;62.34
21760;BME280;11041;50.854;20.580;2023-03-14T13:37:26;96887.78;;;11.80;62.01
21760;BME280;11041;50.854;20.580;2023-03-14T13:39:57;96892.50;;;11.80;62.38
21760;BME280;11041;50.854;20.580;2023-03-14T13:42:29;96881.53;;;11.83;62.49
21760;BME280;11041;50.854;20.580;2023-03-14T13:44:57;96876.88;;;11.84;62.22
21760;BME280;11041;50.854;20.580;2023-03-14T13:47:26;96877.66;;;11.84;62.45
21760;BME280;11041;50.854;20.580;2023-03-14T13:49:54;96886.34;;;11.86;62.83
21760;BME280;11041;50.854;20.580;2023-03-14T13:52:30;96890.38;;;11.92;62.19
21760;BME280;11041;50.854;20.580;2023-03-14T13:55:00;96902.84;;;11.86;62.21
21760;BME280;11041;50.854;20.580;2023-03-14T13:57:26;96912.25;;;11.85;62.42
21760;BME280;11041;50.854;20.580;2023-03-14T14:00:16;96899.66;;;11.84;62.75
21760;BME280;11041;50.854;20.580;2023-03-14T14:02:44;96911.03;;;11.83;63.28
21760;BME280;11041;50.854;20.580;2023-03-14T14:05:12;96912.88;;;11.75;63.65